Terminal Aerodrome Forecast
Issued by NWS

Home | Current Version | Previous Version | Text Only | Print | Product List | Glossary On
Versions: 1 2 3 4 5 6 7 8 9 10 11 12 13
322
FTUS45 KFGZ 271740
TAFGCN
TAF
KGCN 271740Z 2718/2818 22018G28KT P6SM BKN060 BKN100
      TEMPO 2721/2801 6SM -TSRA BKN045CB
     FM280100 29010KT P6SM -SHRA BKN025 OVC040
     FM280400 27008KT 6SM -SHSN BKN025 OVC040
     FM280900 27008KT P6SM BKN025
     FM281200 35012G20KT P6SM SCT040=

USA.gov is the U.S. government's official web portal to all federal, state and local government web resources and services.